Time;durP1;ratioP1;P1;durP2;ratioP2;P2;SDS_P1;SDS_P2;PMS_P1;PMS_P2;Temp;Humidity;BMP_temperature;BMP_pressure;BME280_temperature;BME280_humidity;BME280_pressure;Samples;Min_cycle;Max_cycle;Signal;HPM_P1;HPM_P2
2022/09/21 00:01:56;;;;;;;8.17;6.43;;;;;;;9.98;89.46;94821.09;5132590;27;20673;-81
2022/09/21 00:04:23;;;;;;;9.73;6.27;;;;;;;9.95;89.89;94822.31;5134515;27;20238;-81
2022/09/21 00:06:50;;;;;;;6.80;6.07;;;;;;;10.00;89.90;94825.09;5136497;27;20662;-81
2022/09/21 00:09:18;;;;;;;6.50;5.20;;;;;;;10.05;90.01;94825.25;5137315;27;20203;-81
2022/09/21 00:11:45;;;;;;;3.70;3.40;;;;;;;10.00;89.46;94827.69;5138356;27;20206;-81
2022/09/21 00:14:14;;;;;;;6.20;3.40;;;;;;;10.02;88.73;94828.25;5134798;27;20199;-81
2022/09/21 00:16:42;;;;;;;5.87;3.13;;;;;;;10.02;89.30;94825.66;5134953;27;20199;-81
2022/09/21 00:19:10;;;;;;;5.93;3.20;;;;;;;10.10;88.31;94824.63;5136352;27;20227;-81
2022/09/21 00:21:38;;;;;;;3.77;3.33;;;;;;;10.15;87.96;94819.63;5133062;27;20336;-82
2022/09/21 00:24:06;;;;;;;3.97;3.57;;;;;;;10.12;88.09;94825.19;5130577;27;20227;-81
2022/09/21 00:26:34;;;;;;;5.77;3.40;;;;;;;10.14;87.96;94824.00;5134987;27;20203;-81
2022/09/21 00:29:02;;;;;;;4.87;3.33;;;;;;;10.10;87.39;94828.00;5133004;27;20207;-80
2022/09/21 00:31:31;;;;;;;7.87;4.20;;;;;;;10.10;87.86;94822.03;5134499;27;20209;-79
2022/09/21 00:33:59;;;;;;;5.77;4.17;;;;;;;10.10;88.21;94829.81;5134955;27;20230;-82
2022/09/21 00:36:27;;;;;;;5.73;3.70;;;;;;;9.94;88.39;94815.53;5137852;27;20210;-80
2022/09/21 00:38:56;;;;;;;5.30;4.20;;;;;;;9.88;89.01;94825.94;5131821;27;20234;-80
2022/09/21 00:41:24;;;;;;;5.17;4.00;;;;;;;9.83;88.71;94826.59;5130173;27;20199;-79
2022/09/21 00:44:38;;;;;;;6.50;4.17;;;;;;;9.84;88.41;94817.78;5134418;27;20642;-80
2022/09/21 00:47:12;;;;;;;7.70;4.73;;;;;;;9.86;88.54;94822.78;5075187;28;20208;-81
2022/09/21 00:49:40;;;;;;;7.77;5.03;;;;;;;9.72;88.77;94824.66;5067325;28;20216;-81
2022/09/21 00:52:08;;;;;;;6.80;4.93;;;;;;;9.66;89.19;94825.47;5102278;27;20241;-82
2022/09/21 00:54:43;;;;;;;6.27;4.70;;;;;;;9.68;87.92;94824.28;5135095;27;20200;-82
2022/09/21 00:57:10;;;;;;;5.57;4.07;;;;;;;9.65;88.14;94818.69;5129233;27;20207;-81
2022/09/21 00:59:39;;;;;;;5.23;4.43;;;;;;;9.53;88.28;94825.53;5128507;27;20724;-81
2022/09/21 01:02:08;;;;;;;6.07;4.60;;;;;;;9.49;88.58;94820.00;5128830;27;20614;-80
2022/09/21 01:04:35;;;;;;;4.97;4.30;;;;;;;9.56;88.16;94822.53;5132241;27;20267;-81
2022/09/21 01:07:05;;;;;;;6.37;4.70;;;;;;;9.45;88.58;94823.19;5135412;27;20203;-80
2022/09/21 01:09:33;;;;;;;5.83;4.30;;;;;;;9.42;87.90;94816.63;5129819;27;20214;-81
2022/09/21 01:12:14;;;;;;;5.73;4.43;;;;;;;9.32;89.08;94820.66;5131292;27;20203;-81
2022/09/21 01:15:16;;;;;;;5.03;3.97;;;;;;;9.27;89.32;94817.88;5131360;27;20199;-82
2022/09/21 01:17:51;;;;;;;5.87;3.83;;;;;;;9.18;89.47;94813.94;5133967;27;20206;-82
2022/09/21 01:20:39;;;;;;;5.50;3.83;;;;;;;9.16;89.19;94814.13;5131289;27;20697;-82
2022/09/21 01:23:32;;;;;;;5.23;4.10;;;;;;;9.20;89.96;94817.09;5128829;27;20708;-81
2022/09/21 01:26:08;;;;;;;5.20;4.10;;;;;;;9.23;89.93;94809.72;5133153;27;20203;-82
2022/09/21 01:29:06;;;;;;;5.70;4.50;;;;;;;9.26;89.57;94806.72;5130852;27;20191;-82
2022/09/21 01:31:40;;;;;;;4.97;4.03;;;;;;;9.22;89.66;94802.94;5135633;27;20195;-81
2022/09/21 01:34:12;;;;;;;4.63;4.00;;;;;;;9.10;89.98;94796.78;5132991;27;20195;-81
2022/09/21 01:36:42;;;;;;;8.03;5.83;;;;;;;9.08;90.85;94798.81;5134051;27;20221;-83
2022/09/21 01:39:13;;;;;;;5.37;4.37;;;;;;;9.08;90.88;94796.22;5137364;27;20298;-80
2022/09/21 01:41:43;;;;;;;8.63;6.07;;;;;;;8.99;90.88;94789.66;5132683;27;20195;-80
2022/09/21 01:44:18;;;;;;;8.83;6.47;;;;;;;8.90;91.66;94796.84;5132674;27;20223;-79
2022/09/21 01:46:47;;;;;;;8.53;5.87;;;;;;;8.91;91.52;94790.69;5136008;27;20193;-78
2022/09/21 01:49:16;;;;;;;8.43;6.03;;;;;;;8.89;91.70;94795.25;5132680;27;20622;-79
2022/09/21 01:51:51;;;;;;;8.90;5.33;;;;;;;8.87;91.42;94799.84;5133275;27;20222;-80
2022/09/21 01:54:23;;;;;;;10.87;5.20;;;;;;;8.88;91.45;94798.88;5135979;27;20290;-80
2022/09/21 01:56:58;;;;;;;6.97;4.70;;;;;;;8.79;91.92;94797.50;5133416;27;20271;-81
2022/09/21 01:59:36;;;;;;;7.47;4.77;;;;;;;8.77;92.65;94799.50;5129181;27;20246;-81
2022/09/21 02:02:09;;;;;;;9.37;5.97;;;;;;;8.80;93.04;94790.53;5133343;27;20195;-82
2022/09/21 02:04:37;;;;;;;10.83;5.77;;;;;;;8.88;92.13;94796.28;5127782;27;20238;-81
2022/09/21 02:07:04;;;;;;;10.10;6.47;;;;;;;8.84;92.52;94800.25;5134504;27;20213;-82
2022/09/21 02:09:32;;;;;;;10.30;6.67;;;;;;;8.76;93.20;94797.91;5132783;27;20195;-81
2022/09/21 02:12:01;;;;;;;8.70;6.63;;;;;;;8.72;92.96;94793.31;5132203;27;20758;-81
2022/09/21 02:14:32;;;;;;;10.33;5.80;;;;;;;8.69;93.55;94804.88;5134781;27;20204;-81
2022/09/21 02:17:10;;;;;;;6.10;4.60;;;;;;;8.73;93.39;94806.06;5129026;27;20215;-81
2022/09/21 02:19:45;;;;;;;5.27;4.10;;;;;;;8.72;93.54;94809.66;5129663;27;20736;-81
2022/09/21 02:22:17;;;;;;;6.17;4.23;;;;;;;8.67;94.67;94804.28;5127662;27;20219;-81
2022/09/21 02:24:47;;;;;;;5.00;3.60;;;;;;;8.56;94.03;94797.13;5131111;27;20681;-81
2022/09/21 02:27:24;;;;;;;4.07;3.67;;;;;;;8.58;93.71;94805.50;5135882;27;20195;-79
2022/09/21 02:30:02;;;;;;;4.67;3.60;;;;;;;8.56;93.20;94804.91;5129380;27;20199;-79
2022/09/21 02:32:34;;;;;;;3.67;3.33;;;;;;;8.61;93.51;94806.88;5131951;27;20195;-79
2022/09/21 02:35:08;;;;;;;4.30;3.83;;;;;;;8.62;92.64;94811.88;5130898;27;20199;-80
2022/09/21 02:37:40;;;;;;;6.10;4.27;;;;;;;8.62;92.83;94804.09;5129931;27;20199;-81
2022/09/21 02:40:16;;;;;;;5.23;4.00;;;;;;;8.57;92.96;94807.28;5132934;27;20965;-81
2022/09/21 02:42:46;;;;;;;5.47;4.10;;;;;;;8.62;94.18;94806.69;5131463;27;20661;-80
2022/09/21 02:45:20;;;;;;;4.33;3.80;;;;;;;8.60;92.97;94806.06;5132768;27;20203;-81
2022/09/21 02:47:53;;;;;;;5.93;3.83;;;;;;;8.60;93.56;94808.66;5134586;27;20210;-81
2022/09/21 02:50:25;;;;;;;5.00;4.40;;;;;;;8.64;93.10;94803.88;5131877;27;20195;-80
2022/09/21 02:52:54;;;;;;;7.30;4.40;;;;;;;8.43;93.84;94810.09;5130264;27;20231;-81
2022/09/21 02:55:23;;;;;;;4.73;4.20;;;;;;;8.41;93.81;94820.66;5133646;27;20198;-80
2022/09/21 02:57:50;;;;;;;8.17;4.70;;;;;;;8.30;94.19;94812.69;5130338;27;20210;-80
2022/09/21 03:00:20;;;;;;;7.77;4.80;;;;;;;8.27;94.93;94808.72;5129326;27;20257;-80
2022/09/21 03:02:46;;;;;;;5.93;4.63;;;;;;;8.25;95.53;94808.09;5129794;27;20195;-83
2022/09/21 03:05:15;;;;;;;6.60;4.80;;;;;;;8.29;94.73;94805.91;5130649;27;20207;-84
2022/09/21 03:07:42;;;;;;;7.10;5.00;;;;;;;8.19;95.53;94805.50;5131352;27;20210;-76
2022/09/21 03:10:09;;;;;;;9.67;5.30;;;;;;;8.24;95.41;94819.44;5133375;27;20221;-76
2022/09/21 03:12:37;;;;;;;5.63;4.77;;;;;;;8.15;95.90;94815.44;5130189;27;20242;-76
2022/09/21 03:15:04;;;;;;;10.60;5.30;;;;;;;8.18;95.82;94819.44;5131387;27;20206;-75
2022/09/21 03:17:33;;;;;;;9.37;6.50;;;;;;;8.12;95.91;94820.22;5131831;27;20203;-76
2022/09/21 03:20:00;;;;;;;12.77;8.13;;;;;;;8.02;97.01;94820.63;5131322;27;20234;-76
2022/09/21 03:22:27;;;;;;;11.57;7.77;;;;;;;7.99;96.38;94814.03;5134317;27;20207;-76
2022/09/21 03:24:56;;;;;;;10.23;7.70;;;;;;;7.97;97.22;94808.25;5139097;27;20296;-76
2022/09/21 03:27:24;;;;;;;14.47;8.50;;;;;;;8.05;96.47;94820.22;5132314;27;20329;-76
2022/09/21 03:29:51;;;;;;;13.33;8.50;;;;;;;8.11;96.34;94819.41;5135719;27;20206;-76
2022/09/21 03:32:18;;;;;;;14.63;8.60;;;;;;;8.04;96.70;94823.81;5134658;27;20195;-76
2022/09/21 03:34:46;;;;;;;12.30;8.20;;;;;;;8.04;96.64;94817.81;5134480;27;20218;-76
2022/09/21 03:37:13;;;;;;;11.17;8.43;;;;;;;8.08;96.07;94819.03;5135880;27;20211;-77
2022/09/21 03:39:40;;;;;;;14.73;8.57;;;;;;;8.10;96.29;94822.22;5131872;27;20226;-77
2022/09/21 03:42:08;;;;;;;11.93;8.13;;;;;;;8.05;96.41;94816.84;5132893;27;20214;-77
2022/09/21 03:44:36;;;;;;;13.57;8.20;;;;;;;7.96;97.03;94819.59;5132404;27;20590;-78
2022/09/21 03:47:05;;;;;;;12.17;7.90;;;;;;;7.96;97.64;94816.25;5138953;27;20255;-77
2022/09/21 03:49:32;;;;;;;11.87;8.57;;;;;;;7.92;97.39;94822.78;5134050;27;20562;-77
2022/09/21 03:52:01;;;;;;;15.30;9.20;;;;;;;7.77;98.03;94832.50;5133399;27;20243;-77
2022/09/21 03:54:28;;;;;;;18.27;10.63;;;;;;;7.79;98.81;94833.91;5135954;27;20221;-76
2022/09/21 03:56:55;;;;;;;17.07;10.30;;;;;;;7.83;99.06;94824.78;5135515;27;21070;-76
2022/09/21 03:59:21;;;;;;;16.40;9.70;;;;;;;7.76;98.77;94828.34;5133364;27;20219;-80
2022/09/21 04:01:48;;;;;;;17.97;9.60;;;;;;;7.67;99.24;94821.75;5133348;27;20719;-77
2022/09/21 04:04:15;;;;;;;16.57;10.57;;;;;;;7.68;99.83;94820.75;5134382;27;20219;-77
2022/09/21 04:06:45;;;;;;;19.63;12.17;;;;;;;7.75;100.00;94827.56;5134651;27;20272;-76
2022/09/21 04:09:13;;;;;;;24.67;13.23;;;;;;;7.83;99.78;94819.59;5135620;27;20230;-77
2022/09/21 04:11:40;;;;;;;30.33;14.37;;;;;;;7.77;99.84;94832.50;5141101;27;20199;-76
2022/09/21 04:14:07;;;;;;;26.30;14.13;;;;;;;7.81;100.00;94833.72;5138101;27;20264;-73
2022/09/21 04:16:34;;;;;;;20.67;11.37;;;;;;;7.88;99.66;94837.09;5131532;27;20211;-74
2022/09/21 04:19:01;;;;;;;18.53;11.23;;;;;;;7.93;99.15;94830.38;5132643;27;20199;-75
2022/09/21 04:21:28;;;;;;;23.60;12.67;;;;;;;7.96;98.89;94831.75;5134194;27;20229;-76
2022/09/21 04:23:55;;;;;;;23.23;12.30;;;;;;;7.96;98.17;94827.38;5129683;27;21784;-73
2022/09/21 04:26:25;;;;;;;19.77;12.53;;;;;;;7.91;98.99;94829.75;5132449;27;20196;-74
2022/09/21 04:28:54;;;;;;;19.67;11.77;;;;;;;7.93;98.77;94827.78;5130592;27;20218;-73
2022/09/21 04:31:21;;;;;;;23.33;12.53;;;;;;;7.88;99.00;94824.97;5128616;27;20199;-73
2022/09/21 04:33:49;;;;;;;24.17;12.37;;;;;;;7.99;99.41;94831.38;5131705;27;20206;-73
2022/09/21 04:36:16;;;;;;;21.27;13.70;;;;;;;8.07;98.87;94828.59;5134772;27;20620;-73
2022/09/21 04:38:43;;;;;;;24.27;14.30;;;;;;;8.15;98.75;94827.59;5133781;27;20194;-72
2022/09/21 04:41:10;;;;;;;25.03;15.20;;;;;;;8.17;98.48;94833.34;5134842;27;20701;-72
2022/09/21 04:43:39;;;;;;;34.77;19.53;;;;;;;8.17;98.74;94828.19;5136311;27;20206;-72
2022/09/21 04:46:07;;;;;;;28.47;20.63;;;;;;;8.24;98.08;94834.16;5133181;27;20246;-73
2022/09/21 04:48:34;;;;;;;34.30;20.17;;;;;;;8.25;97.56;94828.00;5130472;27;20201;-75
2022/09/21 04:51:01;;;;;;;33.33;20.97;;;;;;;8.24;98.14;94826.41;5134957;27;20196;-74
2022/09/21 04:53:28;;;;;;;41.40;20.90;;;;;;;8.24;98.91;94832.38;5132240;27;20287;-74
2022/09/21 04:55:55;;;;;;;32.90;17.93;;;;;;;8.32;98.09;94836.59;5135351;27;20199;-76
2022/09/21 04:58:22;;;;;;;30.33;17.67;;;;;;;8.35;98.39;94839.56;5131048;27;20203;-76
2022/09/21 05:00:51;;;;;;;30.57;16.73;;;;;;;8.38;98.79;94844.34;5133469;27;20681;-75
2022/09/21 05:03:18;;;;;;;33.47;15.20;;;;;;;8.45;98.39;94836.59;5135789;27;20206;-76
2022/09/21 05:05:49;;;;;;;35.30;24.03;;;;;;;8.49;98.41;94837.78;5133916;27;20203;-77
2022/09/21 05:10:01;;;;;;;32.90;22.00;;;;;;;8.57;98.25;94836.78;5128600;27;20204;-77
2022/09/21 05:11:03;;;;;;;44.03;19.37;;;;;;;8.63;97.68;94841.94;5135703;27;20221;-77
2022/09/21 05:13:30;;;;;;;27.73;16.80;;;;;;;8.71;98.25;94838.38;5132927;27;20203;-77
2022/09/21 05:15:58;;;;;;;20.83;12.03;;;;;;;8.79;97.35;94838.94;5134555;27;20211;-78
2022/09/21 05:18:25;;;;;;;28.57;11.20;;;;;;;8.83;97.85;94842.72;5130758;27;20207;-78
2022/09/21 05:20:54;;;;;;;34.57;12.73;;;;;;;8.86;97.91;94844.13;5134684;27;20221;-77
2022/09/21 05:23:21;;;;;;;22.93;8.97;;;;;;;8.94;97.63;94842.13;5132377;27;20195;-77
2022/09/21 05:25:48;;;;;;;15.77;7.67;;;;;;;8.97;97.41;94840.91;5135793;27;20195;-77
2022/09/21 05:28:16;;;;;;;9.33;5.43;;;;;;;9.04;97.16;94842.47;5135740;27;20195;-78
2022/09/21 05:30:44;;;;;;;10.27;5.13;;;;;;;9.09;96.30;94842.66;5135742;27;20195;-77
2022/09/21 05:33:20;;;;;;;10.67;4.70;;;;;;;9.10;95.55;94841.66;5135555;27;20199;-78
2022/09/21 05:35:59;;;;;;;10.37;6.17;;;;;;;9.06;95.95;94850.84;5129927;27;20202;-78
2022/09/21 05:38:26;;;;;;;12.63;6.47;;;;;;;9.20;95.81;94846.44;5132827;27;20795;-77
2022/09/21 05:40:54;;;;;;;15.23;7.70;;;;;;;9.20;95.96;94843.03;5137679;27;20234;-76
2022/09/21 05:43:21;;;;;;;11.23;7.50;;;;;;;9.32;94.19;94841.41;5133953;27;20206;-78
2022/09/21 05:45:57;;;;;;;14.60;7.50;;;;;;;9.31;93.98;94843.19;5131403;27;20199;-77
2022/09/21 05:48:31;;;;;;;16.27;7.33;;;;;;;9.36;94.12;94837.38;5132470;27;20214;-77
2022/09/21 05:51:04;;;;;;;12.10;7.80;;;;;;;9.39;94.16;94840.38;5135530;27;20250;-77
2022/09/21 05:53:53;;;;;;;15.93;8.17;;;;;;;9.46;93.86;94841.16;5136297;27;20237;-77
2022/09/21 05:56:38;;;;;;;12.70;7.33;;;;;;;9.54;94.95;94843.50;5128337;27;20203;-77
2022/09/21 05:59:15;;;;;;;17.80;7.43;;;;;;;9.58;94.48;94842.06;5138251;27;20202;-77
2022/09/21 06:01:56;;;;;;;12.50;7.43;;;;;;;9.69;93.61;94845.84;5133481;27;20542;-77
2022/09/21 06:04:26;;;;;;;23.17;7.43;;;;;;;9.78;93.59;94842.00;5134684;27;20195;-76
2022/09/21 06:06:53;;;;;;;15.00;7.00;;;;;;;9.88;92.82;94847.50;5132936;27;20238;-76
2022/09/21 06:09:20;;;;;;;11.20;6.80;;;;;;;10.00;92.86;94850.25;5136106;27;20287;-77
2022/09/21 06:11:47;;;;;;;14.47;6.30;;;;;;;10.06;93.08;94852.81;5133067;27;20263;-76
2022/09/21 06:14:14;;;;;;;12.87;6.60;;;;;;;10.10;92.78;94853.97;5135625;27;20642;-78
2022/09/21 06:16:42;;;;;;;14.40;6.43;;;;;;;10.19;93.09;94850.13;5134150;27;20204;-77
2022/09/21 06:19:11;;;;;;;13.97;6.77;;;;;;;10.31;91.86;94847.66;5132676;27;20665;-77
2022/09/21 06:21:40;;;;;;;10.03;5.07;;;;;;;10.44;91.21;94849.38;5131914;27;20226;-77
2022/09/21 06:24:07;;;;;;;10.50;4.77;;;;;;;10.44;91.51;94852.78;5139165;27;20217;-77
2022/09/21 06:26:33;;;;;;;8.37;4.93;;;;;;;10.50;92.67;94857.13;5133236;27;20198;-77
2022/09/21 06:29:01;;;;;;;7.10;4.70;;;;;;;10.45;91.76;94861.34;5133745;27;20566;-77
2022/09/21 06:31:28;;;;;;;11.10;5.10;;;;;;;10.45;91.31;94863.94;5130642;27;20195;-77
2022/09/21 06:33:55;;;;;;;11.03;6.03;;;;;;;10.50;91.36;94857.13;5133263;27;20260;-77
2022/09/21 06:36:22;;;;;;;9.07;4.90;;;;;;;10.54;91.67;94865.28;5133972;27;20207;-76
2022/09/21 06:38:50;;;;;;;8.23;4.60;;;;;;;10.52;91.06;94865.50;5136206;27;20198;-76
2022/09/21 06:41:17;;;;;;;17.27;4.97;;;;;;;10.67;91.21;94865.97;5133604;27;20595;-76
2022/09/21 06:43:44;;;;;;;7.27;4.50;;;;;;;10.68;90.37;94864.94;5133653;27;20202;-78
2022/09/21 06:46:11;;;;;;;9.00;4.20;;;;;;;10.67;90.33;94858.19;5135084;27;20221;-77
2022/09/21 06:48:38;;;;;;;10.00;4.70;;;;;;;10.86;90.34;94874.59;5136967;27;20194;-77
2022/09/21 06:51:06;;;;;;;6.50;4.40;;;;;;;10.96;89.87;94869.72;5130453;27;20199;-77
2022/09/21 06:53:34;;;;;;;5.93;3.50;;;;;;;10.99;89.36;94882.28;5129971;27;20227;-77
2022/09/21 06:56:05;;;;;;;5.07;3.87;;;;;;;11.06;88.66;94882.22;5133760;27;20210;-77
2022/09/21 06:58:33;;;;;;;7.53;3.63;;;;;;;11.05;89.38;94883.25;5135717;27;20557;-77
2022/09/21 07:01:05;;;;;;;5.10;3.67;;;;;;;11.05;89.18;94881.44;5137231;27;20623;-76
2022/09/21 07:03:32;;;;;;;7.00;3.53;;;;;;;11.11;89.70;94877.19;5134437;27;20568;-83
2022/09/21 07:05:59;;;;;;;8.37;4.30;;;;;;;11.20;89.78;94874.06;5134592;27;20216;-84
2022/09/21 07:08:26;;;;;;;7.07;4.30;;;;;;;11.25;89.76;94883.84;5135814;27;20294;-83
2022/09/21 07:10:53;;;;;;;3.90;3.33;;;;;;;11.08;89.77;94873.19;5136738;27;20649;-83
2022/09/21 07:13:21;;;;;;;3.17;2.87;;;;;;;11.16;90.25;94879.94;5136853;27;20202;-83
2022/09/21 07:15:48;;;;;;;7.70;3.20;;;;;;;11.01;90.52;94885.47;5138443;27;20199;-83
2022/09/21 07:18:18;;;;;;;4.73;3.10;;;;;;;11.15;90.48;94884.31;5137360;27;20207;-83
2022/09/21 07:20:46;;;;;;;7.17;3.50;;;;;;;11.23;91.05;94878.84;5135378;27;20314;-83
2022/09/21 07:23:15;;;;;;;6.00;3.10;;;;;;;11.15;90.76;94866.13;5134922;27;20199;-83
2022/09/21 07:25:42;;;;;;;3.80;3.30;;;;;;;11.41;90.65;94883.25;5138347;27;20199;-83
2022/09/21 07:28:10;;;;;;;6.27;3.00;;;;;;;11.43;90.43;94860.41;5139040;27;20203;-83
2022/09/21 07:30:40;;;;;;;4.00;3.40;;;;;;;11.71;89.37;94891.97;5139450;27;20210;-81
2022/09/21 07:33:07;;;;;;;7.60;3.40;;;;;;;11.58;88.79;94881.66;5134432;27;20207;-82
2022/09/21 07:35:34;;;;;;;3.67;3.20;;;;;;;11.45;87.13;94874.00;5140578;27;20302;-82
2022/09/21 07:38:03;;;;;;;3.53;2.90;;;;;;;11.28;88.40;94886.78;5137984;27;20202;-79
2022/09/21 07:40:30;;;;;;;7.00;2.93;;;;;;;11.18;89.63;94885.69;5132234;27;20716;-77
2022/09/21 07:42:58;;;;;;;5.40;3.27;;;;;;;11.29;89.78;94884.97;5132196;27;20207;-77
2022/09/21 07:45:26;;;;;;;3.97;3.40;;;;;;;11.50;89.60;94881.16;5133370;27;20843;-77
2022/09/21 07:47:55;;;;;;;10.70;3.90;;;;;;;11.64;88.18;94882.59;5137268;27;20195;-82
2022/09/21 07:50:22;;;;;;;5.63;3.30;;;;;;;11.69;87.53;94880.94;5136291;27;20282;-80
2022/09/21 07:52:49;;;;;;;5.33;3.27;;;;;;;11.86;86.58;94889.75;5139027;27;20709;-79
2022/09/21 07:55:16;;;;;;;7.30;3.30;;;;;;;12.00;86.28;94887.00;5135512;27;20203;-79
2022/09/21 08:00:31;;;;;;;5.47;3.77;;;;;;;12.23;82.60;94882.66;5133441;27;20238;-79
2022/09/21 08:03:00;;;;;;;6.80;3.43;;;;;;;12.15;82.93;94882.94;5135131;27;20843;-76
2022/09/21 08:05:26;;;;;;;5.40;3.00;;;;;;;12.12;83.68;94878.19;5133187;27;20267;-77
2022/09/21 08:07:55;;;;;;;5.83;3.50;;;;;;;12.17;83.43;94886.16;5135394;27;20199;-74
2022/09/21 08:10:22;;;;;;;4.13;3.10;;;;;;;12.20;83.06;94884.91;5138029;27;20204;-76
2022/09/21 08:12:49;;;;;;;6.07;3.60;;;;;;;12.07;83.77;94879.88;5139042;27;20203;-80
2022/09/21 08:15:16;;;;;;;5.13;3.17;;;;;;;12.06;84.31;94875.69;5135630;27;20206;-74
2022/09/21 08:17:43;;;;;;;5.73;3.10;;;;;;;12.18;83.71;94881.75;5133885;27;20658;-80
2022/09/21 08:20:13;;;;;;;4.57;3.30;;;;;;;12.21;83.58;94879.47;5131724;27;20259;-79
2022/09/21 08:22:40;;;;;;;6.47;3.50;;;;;;;12.41;82.17;94892.19;5131308;27;20634;-73
2022/09/21 08:25:08;;;;;;;4.97;3.10;;;;;;;12.45;81.46;94883.72;5134633;27;20199;-74
2022/09/21 08:27:35;;;;;;;3.57;2.93;;;;;;;12.52;81.59;94873.22;5136257;27;20551;-74
2022/09/21 08:30:02;;;;;;;6.37;3.10;;;;;;;12.74;80.16;94870.84;5136697;27;20206;-74
2022/09/21 08:32:30;;;;;;;6.13;2.80;;;;;;;12.81;78.98;94874.16;5136761;27;20199;-72
2022/09/21 08:34:57;;;;;;;4.97;3.10;;;;;;;12.92;77.73;94861.13;5130943;27;20203;-73
2022/09/21 08:37:25;;;;;;;5.20;2.77;;;;;;;13.01;76.36;94870.19;5133785;27;20214;-73
2022/09/21 08:39:52;;;;;;;4.53;2.60;;;;;;;13.18;75.24;94869.53;5131739;27;20213;-73
2022/09/21 08:42:38;;;;;;;3.53;2.63;;;;;;;13.36;74.09;94867.56;5136850;27;20229;-73
2022/09/21 08:45:12;;;;;;;3.87;3.00;;;;;;;13.60;72.51;94866.50;5140372;27;20210;-73
2022/09/21 08:47:43;;;;;;;5.37;2.50;;;;;;;13.45;72.91;94863.56;5135948;27;20200;-74
2022/09/21 08:50:23;;;;;;;3.53;2.70;;;;;;;13.29;72.56;94853.06;5133661;27;20207;-73
2022/09/21 08:52:58;;;;;;;2.80;2.60;;;;;;;13.22;73.16;94857.63;5092659;27;1220479;-73
2022/09/21 08:55:25;;;;;;;5.03;2.33;;;;;;;13.09;75.59;94850.81;5134299;27;20209;-73
2022/09/21 08:57:53;;;;;;;3.43;2.57;;;;;;;13.27;75.26;94855.91;5135441;27;20582;-74
2022/09/21 09:00:21;;;;;;;4.20;2.80;;;;;;;13.60;74.05;94856.06;5129996;27;20190;-73
2022/09/21 09:03:24;;;;;;;3.80;2.93;;;;;;;13.76;72.62;94848.53;5132504;27;20221;-75
2022/09/21 09:05:57;;;;;;;4.67;3.40;;;;;;;13.78;70.55;94849.88;5122288;27;20194;-76
2022/09/21 09:08:55;;;;;;;3.70;2.80;;;;;;;13.61;70.92;94844.59;5129578;27;20199;-74
2022/09/21 09:11:37;;;;;;;3.60;2.30;;;;;;;13.71;70.35;94846.59;5135157;27;20222;-73
2022/09/21 09:14:22;;;;;;;4.50;2.27;;;;;;;13.75;70.57;94839.91;5129217;27;20304;-73
2022/09/21 09:16:59;;;;;;;6.37;2.40;;;;;;;13.80;70.47;94837.38;5135330;27;20191;-72
2022/09/21 09:19:30;;;;;;;3.13;2.60;;;;;;;13.95;70.63;94837.66;5134008;27;21199;-75
2022/09/21 09:21:57;;;;;;;3.93;2.57;;;;;;;14.10;68.34;94834.53;5131159;27;20234;-74
2022/09/21 09:24:33;;;;;;;4.00;2.57;;;;;;;13.86;67.70;94833.03;5134929;27;20285;-73
2022/09/21 09:27:04;;;;;;;9.60;2.90;;;;;;;13.97;67.87;94840.81;5135209;27;20954;-73
2022/09/21 09:29:38;;;;;;;4.10;2.60;;;;;;;14.06;65.45;94838.63;5136625;27;20248;-73
2022/09/21 09:32:12;;;;;;;3.13;2.57;;;;;;;14.17;64.75;94827.31;5135734;27;20203;-72
2022/09/21 09:34:44;;;;;;;3.77;2.53;;;;;;;14.25;64.97;94829.56;5130801;27;20197;-72
2022/09/21 09:37:13;;;;;;;5.07;2.50;;;;;;;14.38;65.09;94829.28;5134585;27;20202;-72
2022/09/21 09:39:44;;;;;;;3.60;2.20;;;;;;;14.61;63.06;94825.72;5134018;27;20294;-78
2022/09/21 09:42:27;;;;;;;5.17;2.57;;;;;;;14.58;62.72;94820.97;5135750;27;20207;-71
2022/09/21 09:45:12;;;;;;;3.23;2.20;;;;;;;14.57;62.85;94819.41;5131287;27;20203;-72
2022/09/21 09:47:52;;;;;;;5.23;2.60;;;;;;;14.68;63.99;94819.31;5132423;27;20206;-72
2022/09/21 09:50:29;;;;;;;4.47;2.20;;;;;;;14.74;63.05;94810.50;5132419;27;20748;-71
2022/09/21 09:53:04;;;;;;;3.70;2.30;;;;;;;14.87;63.54;94813.81;5131978;27;20238;-73
2022/09/21 09:55:37;;;;;;;3.10;2.30;;;;;;;14.91;59.43;94809.69;5133210;27;20202;-73
2022/09/21 09:58:05;;;;;;;3.17;2.10;;;;;;;14.90;58.79;94802.84;5131647;27;20627;-73
2022/09/21 10:00:33;;;;;;;2.60;1.90;;;;;;;14.76;57.59;94805.81;5133677;27;20207;-74
2022/09/21 10:02:59;;;;;;;4.13;2.00;;;;;;;14.73;58.65;94790.59;5131213;27;20235;-74
2022/09/21 10:05:34;;;;;;;3.63;2.20;;;;;;;14.86;57.99;94799.16;5135845;27;20215;-73
2022/09/21 10:08:01;;;;;;;2.50;1.87;;;;;;;14.71;57.84;94799.72;5132784;27;20198;-71
2022/09/21 10:10:35;;;;;;;2.43;1.80;;;;;;;14.77;57.62;94789.06;5136924;27;20206;-72
2022/09/21 10:13:13;;;;;;;2.00;1.80;;;;;;;15.13;55.64;94792.97;5137171;27;20206;-72
2022/09/21 10:15:48;;;;;;;2.10;1.90;;;;;;;15.61;54.85;94791.50;5129626;27;20198;-72
2022/09/21 10:18:20;;;;;;;5.70;2.13;;;;;;;16.25;53.99;94797.63;5133169;27;20197;-72
2022/09/21 10:20:58;;;;;;;1.70;1.60;;;;;;;16.40;49.60;94784.63;5134644;27;20205;-72
2022/09/21 10:23:26;;;;;;;1.77;1.63;;;;;;;16.76;50.64;94783.13;5130882;27;20203;-72
2022/09/21 10:25:58;;;;;;;1.80;1.70;;;;;;;17.17;47.54;94776.25;5132810;27;20209;-71
2022/09/21 10:28:27;;;;;;;2.90;1.50;;;;;;;17.72;47.96;94773.09;5130769;27;20203;-72
2022/09/21 10:31:10;;;;;;;3.83;1.43;;;;;;;17.33;46.84;94773.44;5131528;27;20215;-72
2022/09/21 10:33:48;;;;;;;1.80;1.37;;;;;;;17.26;47.63;94769.44;5130101;27;20199;-71
2022/09/21 10:36:31;;;;;;;3.53;2.00;;;;;;;17.24;47.03;94768.94;5134098;27;20277;-71
2022/09/21 10:39:12;;;;;;;4.63;1.73;;;;;;;17.23;45.65;94767.38;5134817;27;20217;-72
2022/09/21 10:41:40;;;;;;;1.97;1.30;;;;;;;17.05;44.76;94765.97;5130763;27;20586;-71
2022/09/21 10:44:16;;;;;;;1.57;1.47;;;;;;;16.40;45.63;94768.91;5132464;27;20203;-71
2022/09/21 10:46:44;;;;;;;1.60;1.50;;;;;;;16.18;47.37;94769.00;5128188;27;20226;-72
2022/09/21 10:49:20;;;;;;;4.23;1.80;;;;;;;16.56;47.67;94759.34;5132867;27;20199;-72
2022/09/21 10:51:49;;;;;;;2.10;1.80;;;;;;;17.08;46.65;94754.94;5134184;27;20413;-73
2022/09/21 10:54:23;;;;;;;2.90;1.77;;;;;;;17.57;43.60;94753.56;5131315;27;20215;-71
2022/09/21 10:56:58;;;;;;;4.73;2.90;;;;;;;18.10;43.09;94752.38;5137190;27;20195;-72
2022/09/21 10:59:27;;;;;;;5.03;3.63;;;;;;;18.27;42.03;94752.13;5130683;27;20598;-71
2022/09/21 11:01:57;;;;;;;2.93;1.80;;;;;;;18.04;41.78;94758.69;5131282;27;20238;-71
2022/09/21 11:04:34;;;;;;;2.70;1.80;;;;;;;18.49;41.69;94754.53;5132852;27;20219;-71
2022/09/21 11:07:12;;;;;;;1.47;1.37;;;;;;;18.99;41.18;94754.44;5133822;27;20206;-71
2022/09/21 11:09:44;;;;;;;4.70;1.60;;;;;;;19.36;40.06;94746.16;5125102;27;20200;-71
2022/09/21 11:12:33;;;;;;;1.83;1.40;;;;;;;19.33;40.30;94743.28;5130617;27;20188;-86
2022/09/21 11:15:14;;;;;;;1.92;1.48;;;;;;;19.65;39.82;94749.72;5131435;27;20195;-85
2022/09/21 11:17:46;;;;;;;2.67;1.67;;;;;;;19.66;39.11;94756.59;5132734;27;20210;-85
2022/09/21 11:20:25;;;;;;;4.60;1.75;;;;;;;18.96;40.21;94754.97;5134335;27;20206;-83
2022/09/21 11:23:36;;;;;;;4.35;1.70;;;;;;;18.54;41.27;94739.50;5145535;27;20222;-85
2022/09/21 11:26:39;;;;;;;2.17;1.50;;;;;;;17.70;42.82;94736.53;5139807;27;20207;-83
2022/09/21 11:29:19;;;;;;;4.80;1.90;;;;;;;17.83;43.17;94748.41;5136978;27;20601;-84
2022/09/21 11:32:10;;;;;;;5.70;1.80;;;;;;;18.47;42.35;94751.34;5130868;27;20653;-86
2022/09/21 11:34:57;;;;;;;5.07;2.30;;;;;;;19.15;41.26;94752.56;5138587;27;20202;-85
2022/09/21 11:37:39;;;;;;;3.95;1.90;;;;;;;19.42;40.31;94755.66;5146419;27;20222;-85
2022/09/21 11:40:22;;;;;;;2.38;1.70;;;;;;;19.57;39.17;94754.78;5144700;27;20207;-85
2022/09/21 11:43:05;;;;;;;3.13;2.58;;;;;;;19.42;39.08;94747.75;5133716;27;20215;-81
2022/09/21 11:45:51;;;;;;;3.58;2.60;;;;;;;18.91;41.97;94743.66;5136328;27;20199;-81
2022/09/21 11:48:28;;;;;;;3.45;1.70;;;;;;;18.48;44.32;94758.16;5143333;27;20322;-81
2022/09/21 11:51:08;;;;;;;4.00;1.58;;;;;;;18.03;48.32;94754.47;5133735;27;20207;-80
2022/09/21 11:53:45;;;;;;;7.50;1.57;;;;;;;17.64;48.24;94753.34;5135449;27;20663;-81
2022/09/21 11:56:42;;;;;;;4.93;1.50;;;;;;;17.40;52.43;94752.19;5135319;27;20229;-79
2022/09/21 11:59:43;;;;;;;2.23;1.33;;;;;;;17.32;51.61;94756.09;5132947;27;20207;-81